sim
Sign-in with your pilot id or email,
or register
Callsign
Passwort

Schedule Details

Flight Number: OEC367
Departure: Bilbao Airport (LEBB) at Time
Arrival: Munich Airport (EDDM) at Time

Weather Information
Getting current METAR information for LEBB 010400Z 11003KT 070V160 9999 SCT030 BKN038 15/14 Q1010 TEMPO 30015G25KT 3000 RA
Getting current METAR information for EDDM 010350Z 07001KT 0700 R08L/0800N R08R/0500N FG FEW001 03/03 Q1010 BECMG 0500 BKN001

Schedule Frequency

Route Map